sensor_id;sensor_type;location;lat;lon;timestamp;pressure;altitude;pressure_sealevel;temperature;humidity
73103;BME280;61294;65.988;29.172;2023-12-28T00:01:03;97172.81;;;-16.74;100.00
73103;BME280;61294;65.988;29.172;2023-12-28T00:03:29;97177.31;;;-16.70;100.00
73103;BME280;61294;65.988;29.172;2023-12-28T00:05:55;97168.00;;;-16.71;100.00
73103;BME280;61294;65.988;29.172;2023-12-28T00:08:21;97146.69;;;-16.86;100.00
73103;BME280;61294;65.988;29.172;2023-12-28T00:10:47;97139.03;;;-16.88;100.00
73103;BME280;61294;65.988;29.172;2023-12-28T00:13:13;97131.22;;;-17.03;100.00
73103;BME280;61294;65.988;29.172;2023-12-28T00:15:39;97137.88;;;-17.03;100.00
73103;BME280;61294;65.988;29.172;2023-12-28T00:18:05;97145.50;;;-16.91;100.00
73103;BME280;61294;65.988;29.172;2023-12-28T00:20:31;97176.38;;;-16.82;100.00
73103;BME280;61294;65.988;29.172;2023-12-28T00:22:57;97137.88;;;-17.03;100.00
73103;BME280;61294;65.988;29.172;2023-12-28T00:25:23;97184.56;;;-16.85;100.00
73103;BME280;61294;65.988;29.172;2023-12-28T00:27:49;97165.50;;;-16.93;100.00
73103;BME280;61294;65.988;29.172;2023-12-28T00:30:15;97171.84;;;-16.98;100.00
73103;BME280;61294;65.988;29.172;2023-12-28T00:32:43;97168.81;;;-16.94;100.00
73103;BME280;61294;65.988;29.172;2023-12-28T00:35:10;97153.38;;;-17.09;100.00
73103;BME280;61294;65.988;29.172;2023-12-28T00:37:36;97184.91;;;-16.92;100.00
73103;BME280;61294;65.988;29.172;2023-12-28T00:40:03;97197.78;;;-16.99;100.00
73103;BME280;61294;65.988;29.172;2023-12-28T00:42:32;97190.88;;;-17.02;100.00
73103;BME280;61294;65.988;29.172;2023-12-28T00:44:57;97181.41;;;-17.26;100.00
73103;BME280;61294;65.988;29.172;2023-12-28T00:47:25;97159.47;;;-17.49;100.00
73103;BME280;61294;65.988;29.172;2023-12-28T00:49:51;97195.19;;;-17.43;100.00
73103;BME280;61294;65.988;29.172;2023-12-28T00:52:17;97164.31;;;-17.73;100.00
73103;BME280;61294;65.988;29.172;2023-12-28T00:54:42;97202.50;;;-17.46;100.00
73103;BME280;61294;65.988;29.172;2023-12-28T00:57:08;97161.50;;;-17.56;100.00
73103;BME280;61294;65.988;29.172;2023-12-28T00:59:34;97201.75;;;-17.56;100.00
73103;BME280;61294;65.988;29.172;2023-12-28T01:02:00;97203.78;;;-17.62;100.00
73103;BME280;61294;65.988;29.172;2023-12-28T01:04:26;97211.13;;;-17.75;100.00
73103;BME280;61294;65.988;29.172;2023-12-28T01:06:52;97173.06;;;-17.90;100.00
73103;BME280;61294;65.988;29.172;2023-12-28T01:09:18;97207.72;;;-17.65;100.00
73103;BME280;61294;65.988;29.172;2023-12-28T01:11:44;97185.31;;;-17.73;100.00
73103;BME280;61294;65.988;29.172;2023-12-28T01:14:10;97220.53;;;-17.73;100.00
73103;BME280;61294;65.988;29.172;2023-12-28T01:16:36;97220.53;;;-17.83;100.00
73103;BME280;61294;65.988;29.172;2023-12-28T01:19:05;97201.47;;;-18.01;100.00
73103;BME280;61294;65.988;29.172;2023-12-28T01:21:31;97213.91;;;-17.82;100.00
73103;BME280;61294;65.988;29.172;2023-12-28T01:23:57;97186.13;;;-17.94;100.00
73103;BME280;61294;65.988;29.172;2023-12-28T01:26:23;97178.84;;;-18.01;100.00
73103;BME280;61294;65.988;29.172;2023-12-28T01:28:49;97218.22;;;-18.12;100.00
73103;BME280;61294;65.988;29.172;2023-12-28T01:31:15;97215.31;;;-18.17;100.00
73103;BME280;61294;65.988;29.172;2023-12-28T01:33:40;97189.19;;;-18.19;100.00
73103;BME280;61294;65.988;29.172;2023-12-28T01:36:20;97222.75;;;-17.98;100.00
73103;BME280;61294;65.988;29.172;2023-12-28T01:38:46;97184.25;;;-18.59;100.00
73103;BME280;61294;65.988;29.172;2023-12-28T01:41:12;97184.75;;;-18.52;100.00
73103;BME280;61294;65.988;29.172;2023-12-28T01:43:39;97216.22;;;-18.16;100.00
73103;BME280;61294;65.988;29.172;2023-12-28T01:46:06;97214.81;;;-18.13;100.00
73103;BME280;61294;65.988;29.172;2023-12-28T01:48:33;97222.22;;;-18.04;100.00
73103;BME280;61294;65.988;29.172;2023-12-28T01:50:59;97217.47;;;-18.21;100.00
73103;BME280;61294;65.988;29.172;2023-12-28T01:53:25;97183.41;;;-18.49;100.00
73103;BME280;61294;65.988;29.172;2023-12-28T01:55:51;97209.31;;;-18.29;100.00
73103;BME280;61294;65.988;29.172;2023-12-28T01:58:17;97179.28;;;-18.38;100.00
73103;BME280;61294;65.988;29.172;2023-12-28T02:00:43;97230.78;;;-18.33;100.00
73103;BME280;61294;65.988;29.172;2023-12-28T02:03:10;97196.16;;;-18.87;100.00
73103;BME280;61294;65.988;29.172;2023-12-28T02:05:36;97224.03;;;-18.94;100.00
73103;BME280;61294;65.988;29.172;2023-12-28T02:08:03;97230.19;;;-18.90;100.00
73103;BME280;61294;65.988;29.172;2023-12-28T02:10:29;97225.03;;;-18.82;100.00
73103;BME280;61294;65.988;29.172;2023-12-28T02:12:56;97208.22;;;-18.93;100.00
73103;BME280;61294;65.988;29.172;2023-12-28T02:15:22;97196.75;;;-19.10;100.00
73103;BME280;61294;65.988;29.172;2023-12-28T02:17:58;97242.00;;;-18.79;100.00
73103;BME280;61294;65.988;29.172;2023-12-28T02:20:31;97240.34;;;-18.79;100.00
73103;BME280;61294;65.988;29.172;2023-12-28T02:22:59;97195.78;;;-18.81;100.00
73103;BME280;61294;65.988;29.172;2023-12-28T02:25:25;97231.97;;;-18.69;100.00
73103;BME280;61294;65.988;29.172;2023-12-28T02:27:51;97225.56;;;-18.65;100.00
73103;BME280;61294;65.988;29.172;2023-12-28T02:30:19;97237.50;;;-18.63;100.00
73103;BME280;61294;65.988;29.172;2023-12-28T02:35:47;97249.66;;;-19.17;100.00
73103;BME280;61294;65.988;29.172;2023-12-28T02:38:15;97246.41;;;-19.16;100.00
73103;BME280;61294;65.988;29.172;2023-12-28T02:40:44;97212.91;;;-19.17;100.00
73103;BME280;61294;65.988;29.172;2023-12-28T02:43:10;97239.56;;;-18.98;100.00
73103;BME280;61294;65.988;29.172;2023-12-28T02:45:38;97209.56;;;-18.97;100.00
73103;BME280;61294;65.988;29.172;2023-12-28T02:48:05;97210.28;;;-19.08;100.00
73103;BME280;61294;65.988;29.172;2023-12-28T02:50:32;97247.03;;;-19.38;100.00
73103;BME280;61294;65.988;29.172;2023-12-28T02:52:58;97210.63;;;-19.72;100.00
73103;BME280;61294;65.988;29.172;2023-12-28T02:55:24;97247.75;;;-19.68;100.00
73103;BME280;61294;65.988;29.172;2023-12-28T02:57:51;97252.84;;;-19.77;100.00
73103;BME280;61294;65.988;29.172;2023-12-28T03:00:20;97241.06;;;-19.59;100.00
73103;BME280;61294;65.988;29.172;2023-12-28T03:02:47;97219.84;;;-19.63;100.00
73103;BME280;61294;65.988;29.172;2023-12-28T03:05:13;97209.25;;;-19.50;100.00
73103;BME280;61294;65.988;29.172;2023-12-28T03:07:39;97255.16;;;-19.21;100.00
73103;BME280;61294;65.988;29.172;2023-12-28T03:10:06;97255.06;;;-19.13;100.00
73103;BME280;61294;65.988;29.172;2023-12-28T03:12:32;97252.31;;;-19.16;100.00
73103;BME280;61294;65.988;29.172;2023-12-28T03:14:58;97257.50;;;-19.52;100.00
73103;BME280;61294;65.988;29.172;2023-12-28T03:17:24;97215.28;;;-19.96;100.00
73103;BME280;61294;65.988;29.172;2023-12-28T03:19:50;97250.97;;;-19.60;100.00
73103;BME280;61294;65.988;29.172;2023-12-28T03:22:17;97212.97;;;-19.84;100.00
73103;BME280;61294;65.988;29.172;2023-12-28T03:24:46;97225.72;;;-19.91;100.00
73103;BME280;61294;65.988;29.172;2023-12-28T03:27:12;97264.97;;;-19.63;100.00
73103;BME280;61294;65.988;29.172;2023-12-28T03:29:38;97230.25;;;-19.58;100.00
73103;BME280;61294;65.988;29.172;2023-12-28T03:32:06;97274.53;;;-19.58;100.00
73103;BME280;61294;65.988;29.172;2023-12-28T03:34:32;97279.03;;;-19.65;100.00
73103;BME280;61294;65.988;29.172;2023-12-28T03:36:59;97279.09;;;-19.73;100.00
73103;BME280;61294;65.988;29.172;2023-12-28T03:39:25;97238.47;;;-19.69;100.00
73103;BME280;61294;65.988;29.172;2023-12-28T03:41:51;97230.41;;;-19.86;100.00
73103;BME280;61294;65.988;29.172;2023-12-28T03:44:20;97274.97;;;-19.92;100.00
73103;BME280;61294;65.988;29.172;2023-12-28T03:46:50;97231.84;;;-20.26;100.00
73103;BME280;61294;65.988;29.172;2023-12-28T03:49:20;97259.38;;;-19.98;100.00
73103;BME280;61294;65.988;29.172;2023-12-28T03:51:47;97269.19;;;-19.91;100.00
73103;BME280;61294;65.988;29.172;2023-12-28T03:54:16;97268.63;;;-19.78;100.00
73103;BME280;61294;65.988;29.172;2023-12-28T03:56:42;97272.22;;;-19.66;100.00
73103;BME280;61294;65.988;29.172;2023-12-28T03:59:09;97271.97;;;-19.69;100.00
73103;BME280;61294;65.988;29.172;2023-12-28T04:01:35;97232.38;;;-19.92;100.00
73103;BME280;61294;65.988;29.172;2023-12-28T04:04:01;97264.03;;;-20.11;100.00
73103;BME280;61294;65.988;29.172;2023-12-28T04:06:27;97252.53;;;-20.37;100.00
73103;BME280;61294;65.988;29.172;2023-12-28T04:08:53;97272.91;;;-20.43;100.00
73103;BME280;61294;65.988;29.172;2023-12-28T04:11:19;97241.41;;;-20.69;100.00
73103;BME280;61294;65.988;29.172;2023-12-28T04:13:45;97243.50;;;-20.82;100.00
73103;BME280;61294;65.988;29.172;2023-12-28T04:16:15;97274.88;;;-20.58;100.00
73103;BME280;61294;65.988;29.172;2023-12-28T04:18:41;97293.22;;;-20.40;100.00
73103;BME280;61294;65.988;29.172;2023-12-28T04:21:09;97259.78;;;-20.68;100.00
73103;BME280;61294;65.988;29.172;2023-12-28T04:23:36;97261.47;;;-20.77;100.00
73103;BME280;61294;65.988;29.172;2023-12-28T04:26:02;97264.41;;;-20.54;100.00
73103;BME280;61294;65.988;29.172;2023-12-28T04:28:28;97280.31;;;-20.25;100.00
73103;BME280;61294;65.988;29.172;2023-12-28T04:30:54;97291.19;;;-20.16;100.00
73103;BME280;61294;65.988;29.172;2023-12-28T04:33:20;97282.19;;;-20.14;100.00
73103;BME280;61294;65.988;29.172;2023-12-28T04:35:46;97294.44;;;-20.17;100.00
73103;BME280;61294;65.988;29.172;2023-12-28T04:38:12;97292.22;;;-20.51;100.00
73103;BME280;61294;65.988;29.172;2023-12-28T04:40:38;97273.63;;;-20.44;100.00
73103;BME280;61294;65.988;29.172;2023-12-28T04:43:04;97242.47;;;-20.56;100.00
73103;BME280;61294;65.988;29.172;2023-12-28T04:45:33;97299.81;;;-20.31;100.00
73103;BME280;61294;65.988;29.172;2023-12-28T04:47:59;97287.78;;;-20.44;100.00
73103;BME280;61294;65.988;29.172;2023-12-28T04:50:25;97258.38;;;-20.56;100.00
73103;BME280;61294;65.988;29.172;2023-12-28T04:52:51;97254.47;;;-20.43;100.00
73103;BME280;61294;65.988;29.172;2023-12-28T04:55:17;97247.81;;;-20.34;100.00
73103;BME280;61294;65.988;29.172;2023-12-28T04:57:43;97243.72;;;-20.42;100.00
73103;BME280;61294;65.988;29.172;2023-12-28T05:00:09;97272.31;;;-20.40;100.00
73103;BME280;61294;65.988;29.172;2023-12-28T05:02:35;97249.78;;;-20.68;100.00
73103;BME280;61294;65.988;29.172;2023-12-28T05:05:01;97286.00;;;-20.73;100.00
73103;BME280;61294;65.988;29.172;2023-12-28T05:07:27;97268.94;;;-20.69;100.00
73103;BME280;61294;65.988;29.172;2023-12-28T05:09:53;97253.94;;;-20.86;100.00
73103;BME280;61294;65.988;29.172;2023-12-28T05:12:19;97280.97;;;-20.64;100.00
73103;BME280;61294;65.988;29.172;2023-12-28T05:14:45;97293.13;;;-20.87;100.00
73103;BME280;61294;65.988;29.172;2023-12-28T05:17:12;97286.50;;;-20.86;100.00
73103;BME280;61294;65.988;29.172;2023-12-28T05:19:38;97249.91;;;-21.12;100.00
73103;BME280;61294;65.988;29.172;2023-12-28T05:22:04;97262.44;;;-21.12;100.00
73103;BME280;61294;65.988;29.172;2023-12-28T05:24:32;97276.97;;;-20.90;100.00
73103;BME280;61294;65.988;29.172;2023-12-28T05:26:58;97245.34;;;-20.98;100.00
73103;BME280;61294;65.988;29.172;2023-12-28T05:29:24;97272.09;;;-20.89;100.00
73103;BME280;61294;65.988;29.172;2023-12-28T05:31:50;97287.81;;;-20.81;100.00
73103;BME280;61294;65.988;29.172;2023-12-28T05:34:16;97280.06;;;-20.93;100.00
73103;BME280;61294;65.988;29.172;2023-12-28T05:36:41;97284.47;;;-20.90;100.00
73103;BME280;61294;65.988;29.172;2023-12-28T05:39:11;97293.00;;;-20.97;100.00
73103;BME280;61294;65.988;29.172;2023-12-28T05:41:39;97295.50;;;-20.97;100.00
73103;BME280;61294;65.988;29.172;2023-12-28T05:44:05;97302.75;;;-21.00;100.00
73103;BME280;61294;65.988;29.172;2023-12-28T05:46:32;97291.25;;;-21.07;100.00
73103;BME280;61294;65.988;29.172;2023-12-28T05:48:58;97292.00;;;-21.16;100.00
73103;BME280;61294;65.988;29.172;2023-12-28T05:51:24;97290.53;;;-21.06;100.00
73103;BME280;61294;65.988;29.172;2023-12-28T05:53:49;97269.25;;;-21.28;100.00
73103;BME280;61294;65.988;29.172;2023-12-28T05:56:16;97256.00;;;-21.36;100.00
73103;BME280;61294;65.988;29.172;2023-12-28T05:58:41;97303.22;;;-21.30;100.00
73103;BME280;61294;65.988;29.172;2023-12-28T06:01:07;97306.63;;;-21.30;100.00
73103;BME280;61294;65.988;29.172;2023-12-28T06:03:33;97296.44;;;-21.14;100.00
73103;BME280;61294;65.988;29.172;2023-12-28T06:05:59;97278.22;;;-21.39;100.00
73103;BME280;61294;65.988;29.172;2023-12-28T06:08:25;97306.16;;;-21.26;100.00
73103;BME280;61294;65.988;29.172;2023-12-28T06:10:51;97317.47;;;-21.21;100.00
73103;BME280;61294;65.988;29.172;2023-12-28T06:13:17;97320.44;;;-21.33;100.00
73103;BME280;61294;65.988;29.172;2023-12-28T06:15:43;97343.09;;;-21.32;100.00
73103;BME280;61294;65.988;29.172;2023-12-28T06:18:09;97326.94;;;-21.44;100.00
73103;BME280;61294;65.988;29.172;2023-12-28T06:20:35;97315.47;;;-21.51;100.00
73103;BME280;61294;65.988;29.172;2023-12-28T06:23:02;97328.66;;;-21.08;100.00
73103;BME280;61294;65.988;29.172;2023-12-28T06:25:28;97311.00;;;-21.10;100.00
73103;BME280;61294;65.988;29.172;2023-12-28T06:27:54;97295.41;;;-21.25;100.00
73103;BME280;61294;65.988;29.172;2023-12-28T06:30:19;97316.59;;;-21.12;100.00
73103;BME280;61294;65.988;29.172;2023-12-28T06:32:45;97278.38;;;-21.38;100.00
73103;BME280;61294;65.988;29.172;2023-12-28T06:35:11;97305.13;;;-21.28;100.00
73103;BME280;61294;65.988;29.172;2023-12-28T06:37:37;97310.00;;;-21.38;100.00
73103;BME280;61294;65.988;29.172;2023-12-28T06:40:03;97304.84;;;-21.40;100.00
73103;BME280;61294;65.988;29.172;2023-12-28T06:42:29;97326.16;;;-21.34;100.00
73103;BME280;61294;65.988;29.172;2023-12-28T06:44:55;97333.38;;;-21.20;100.00
73103;BME280;61294;65.988;29.172;2023-12-28T06:47:21;97299.53;;;-21.16;100.00
73103;BME280;61294;65.988;29.172;2023-12-28T06:49:47;97336.63;;;-21.21;100.00
73103;BME280;61294;65.988;29.172;2023-12-28T06:52:13;97346.88;;;-21.09;100.00
73103;BME280;61294;65.988;29.172;2023-12-28T06:54:38;97341.56;;;-20.86;100.00
73103;BME280;61294;65.988;29.172;2023-12-28T06:57:04;97320.06;;;-20.84;100.00
73103;BME280;61294;65.988;29.172;2023-12-28T06:59:30;97291.56;;;-21.04;100.00
73103;BME280;61294;65.988;29.172;2023-12-28T07:01:56;97343.03;;;-20.88;100.00
73103;BME280;61294;65.988;29.172;2023-12-28T07:04:22;97307.91;;;-21.16;100.00
73103;BME280;61294;65.988;29.172;2023-12-28T07:06:51;97338.44;;;-20.75;100.00
73103;BME280;61294;65.988;29.172;2023-12-28T07:09:16;97341.25;;;-20.72;100.00
73103;BME280;61294;65.988;29.172;2023-12-28T07:11:42;97320.78;;;-20.76;100.00
73103;BME280;61294;65.988;29.172;2023-12-28T07:14:08;97306.41;;;-20.96;100.00
73103;BME280;61294;65.988;29.172;2023-12-28T07:16:34;97333.34;;;-20.94;100.00
73103;BME280;61294;65.988;29.172;2023-12-28T07:19:00;97326.16;;;-21.08;100.00
73103;BME280;61294;65.988;29.172;2023-12-28T07:21:26;97309.84;;;-21.31;100.00
73103;BME280;61294;65.988;29.172;2023-12-28T07:23:51;97346.47;;;-21.23;100.00
73103;BME280;61294;65.988;29.172;2023-12-28T07:26:17;97344.69;;;-21.24;100.00
73103;BME280;61294;65.988;29.172;2023-12-28T07:28:43;97324.28;;;-21.37;100.00
73103;BME280;61294;65.988;29.172;2023-12-28T07:31:10;97325.44;;;-21.42;100.00
73103;BME280;61294;65.988;29.172;2023-12-28T07:33:36;97348.53;;;-21.36;100.00
73103;BME280;61294;65.988;29.172;2023-12-28T07:36:02;97307.09;;;-21.69;100.00
73103;BME280;61294;65.988;29.172;2023-12-28T07:38:29;97348.25;;;-21.48;100.00
73103;BME280;61294;65.988;29.172;2023-12-28T07:40:55;97359.44;;;-21.44;100.00
73103;BME280;61294;65.988;29.172;2023-12-28T07:43:20;97348.66;;;-21.43;100.00
73103;BME280;61294;65.988;29.172;2023-12-28T07:45:46;97331.06;;;-21.62;100.00
73103;BME280;61294;65.988;29.172;2023-12-28T07:48:15;97333.72;;;-21.61;100.00
73103;BME280;61294;65.988;29.172;2023-12-28T07:50:41;97365.47;;;-21.60;100.00
73103;BME280;61294;65.988;29.172;2023-12-28T07:53:07;97346.78;;;-21.37;100.00
73103;BME280;61294;65.988;29.172;2023-12-28T07:55:32;97353.22;;;-21.30;100.00
73103;BME280;61294;65.988;29.172;2023-12-28T07:57:58;97352.22;;;-21.50;100.00
73103;BME280;61294;65.988;29.172;2023-12-28T08:00:24;97347.94;;;-21.42;100.00
73103;BME280;61294;65.988;29.172;2023-12-28T08:02:50;97361.59;;;-21.47;100.00
73103;BME280;61294;65.988;29.172;2023-12-28T08:05:15;97366.31;;;-21.50;100.00
73103;BME280;61294;65.988;29.172;2023-12-28T08:07:41;97326.94;;;-21.53;100.00
73103;BME280;61294;65.988;29.172;2023-12-28T08:10:07;97356.94;;;-21.53;100.00
73103;BME280;61294;65.988;29.172;2023-12-28T08:12:33;97349.88;;;-21.48;100.00
73103;BME280;61294;65.988;29.172;2023-12-28T08:14:59;97346.94;;;-21.62;100.00
73103;BME280;61294;65.988;29.172;2023-12-28T08:17:25;97271.03;;;-22.06;100.00
73103;BME280;61294;65.988;29.172;2023-12-28T08:19:51;97337.34;;;-21.83;100.00
73103;BME280;61294;65.988;29.172;2023-12-28T08:22:17;97334.13;;;-21.74;100.00
73103;BME280;61294;65.988;29.172;2023-12-28T08:24:44;97332.69;;;-21.54;100.00
73103;BME280;61294;65.988;29.172;2023-12-28T08:27:10;97325.03;;;-21.56;100.00
73103;BME280;61294;65.988;29.172;2023-12-28T08:29:36;97289.72;;;-21.76;100.00
73103;BME280;61294;65.988;29.172;2023-12-28T08:32:02;97330.03;;;-21.56;100.00
73103;BME280;61294;65.988;29.172;2023-12-28T08:34:27;97330.00;;;-21.47;100.00
73103;BME280;61294;65.988;29.172;2023-12-28T08:36:53;97338.09;;;-21.41;100.00
73103;BME280;61294;65.988;29.172;2023-12-28T08:39:19;97347.53;;;-21.56;100.00
73103;BME280;61294;65.988;29.172;2023-12-28T08:41:45;97310.63;;;-21.76;100.00
73103;BME280;61294;65.988;29.172;2023-12-28T08:44:11;97321.44;;;-22.01;100.00
73103;BME280;61294;65.988;29.172;2023-12-28T08:46:37;97342.03;;;-22.04;100.00
73103;BME280;61294;65.988;29.172;2023-12-28T08:49:03;97336.44;;;-22.01;100.00
73103;BME280;61294;65.988;29.172;2023-12-28T08:51:28;97341.47;;;-21.84;100.00
73103;BME280;61294;65.988;29.172;2023-12-28T08:53:54;97305.16;;;-21.98;100.00
73103;BME280;61294;65.988;29.172;2023-12-28T08:56:21;97351.63;;;-21.74;100.00
73103;BME280;61294;65.988;29.172;2023-12-28T08:58:47;97337.22;;;-21.76;100.00
73103;BME280;61294;65.988;29.172;2023-12-28T09:03:43;97328.84;;;-21.77;100.00
73103;BME280;61294;65.988;29.172;2023-12-28T09:06:09;97338.69;;;-21.78;100.00
73103;BME280;61294;65.988;29.172;2023-12-28T09:08:35;97338.19;;;-22.00;100.00
73103;BME280;61294;65.988;29.172;2023-12-28T09:11:01;97315.69;;;-22.27;100.00
73103;BME280;61294;65.988;29.172;2023-12-28T09:13:26;97305.84;;;-22.16;100.00
73103;BME280;61294;65.988;29.172;2023-12-28T09:15:52;97333.34;;;-21.99;100.00
73103;BME280;61294;65.988;29.172;2023-12-28T09:18:18;97322.78;;;-22.05;100.00
73103;BME280;61294;65.988;29.172;2023-12-28T09:20:44;97307.47;;;-22.17;100.00
73103;BME280;61294;65.988;29.172;2023-12-28T09:23:10;97292.38;;;-22.10;100.00
73103;BME280;61294;65.988;29.172;2023-12-28T09:25:36;97337.34;;;-21.92;100.00
73103;BME280;61294;65.988;29.172;2023-12-28T09:28:05;97326.28;;;-22.03;100.00
73103;BME280;61294;65.988;29.172;2023-12-28T09:30:31;97291.44;;;-22.19;100.00
73103;BME280;61294;65.988;29.172;2023-12-28T09:32:57;97338.47;;;-22.15;100.00
73103;BME280;61294;65.988;29.172;2023-12-28T09:35:22;97300.84;;;-22.16;100.00
73103;BME280;61294;65.988;29.172;2023-12-28T09:37:50;97327.06;;;-21.95;100.00
73103;BME280;61294;65.988;29.172;2023-12-28T09:40:18;97320.44;;;-21.95;100.00
73103;BME280;61294;65.988;29.172;2023-12-28T09:43:09;97314.13;;;-22.00;100.00
73103;BME280;61294;65.988;29.172;2023-12-28T09:45:38;97299.25;;;-22.07;100.00
73103;BME280;61294;65.988;29.172;2023-12-28T09:48:05;97330.28;;;-21.87;100.00
73103;BME280;61294;65.988;29.172;2023-12-28T09:50:32;97329.69;;;-21.94;100.00
73103;BME280;61294;65.988;29.172;2023-12-28T09:52:58;97334.97;;;-22.08;100.00
73103;BME280;61294;65.988;29.172;2023-12-28T09:55:24;97313.06;;;-22.19;100.00
73103;BME280;61294;65.988;29.172;2023-12-28T09:57:51;97316.13;;;-22.13;100.00
73103;BME280;61294;65.988;29.172;2023-12-28T10:00:17;97283.97;;;-22.10;100.00
73103;BME280;61294;65.988;29.172;2023-12-28T10:02:44;97288.38;;;-22.16;100.00
73103;BME280;61294;65.988;29.172;2023-12-28T10:05:14;97283.53;;;-22.15;100.00
73103;BME280;61294;65.988;29.172;2023-12-28T10:07:42;97317.66;;;-21.98;100.00
73103;BME280;61294;65.988;29.172;2023-12-28T10:10:08;97287.78;;;-22.22;100.00
73103;BME280;61294;65.988;29.172;2023-12-28T10:12:35;97323.03;;;-22.19;100.00
73103;BME280;61294;65.988;29.172;2023-12-28T10:15:07;97315.09;;;-22.24;100.00
73103;BME280;61294;65.988;29.172;2023-12-28T10:17:34;97277.19;;;-22.29;100.00
73103;BME280;61294;65.988;29.172;2023-12-28T10:20:01;97282.91;;;-22.38;100.00
73103;BME280;61294;65.988;29.172;2023-12-28T10:22:33;97322.34;;;-22.01;100.00
73103;BME280;61294;65.988;29.172;2023-12-28T10:25:03;97323.94;;;-22.10;100.00
73103;BME280;61294;65.988;29.172;2023-12-28T10:27:29;97327.13;;;-22.37;100.00
73103;BME280;61294;65.988;29.172;2023-12-28T10:29:55;97326.78;;;-22.49;100.00
73103;BME280;61294;65.988;29.172;2023-12-28T10:32:24;97288.03;;;-22.88;100.00
73103;BME280;61294;65.988;29.172;2023-12-28T10:34:54;97288.84;;;-22.63;100.00
73103;BME280;61294;65.988;29.172;2023-12-28T10:37:21;97324.44;;;-22.48;100.00
73103;BME280;61294;65.988;29.172;2023-12-28T10:39:48;97295.09;;;-22.41;100.00
73103;BME280;61294;65.988;29.172;2023-12-28T10:42:54;97309.06;;;-22.26;100.00
73103;BME280;61294;65.988;29.172;2023-12-28T10:45:23;97311.28;;;-22.20;100.00
73103;BME280;61294;65.988;29.172;2023-12-28T10:47:58;97306.72;;;-22.16;100.00
73103;BME280;61294;65.988;29.172;2023-12-28T10:50:29;97316.97;;;-22.39;100.00
73103;BME280;61294;65.988;29.172;2023-12-28T10:53:08;97298.28;;;-22.51;100.00
73103;BME280;61294;65.988;29.172;2023-12-28T10:55:51;97310.03;;;-22.50;100.00
73103;BME280;61294;65.988;29.172;2023-12-28T10:58:25;97313.72;;;-22.55;100.00
73103;BME280;61294;65.988;29.172;2023-12-28T11:00:59;97309.03;;;-22.52;100.00
73103;BME280;61294;65.988;29.172;2023-12-28T11:03:31;97315.03;;;-22.50;100.00
73103;BME280;61294;65.988;29.172;2023-12-28T11:06:01;97315.59;;;-22.53;100.00
73103;BME280;61294;65.988;29.172;2023-12-28T11:08:29;97306.88;;;-22.74;100.00
73103;BME280;61294;65.988;29.172;2023-12-28T11:10:56;97318.72;;;-22.55;100.00
73103;BME280;61294;65.988;29.172;2023-12-28T11:13:23;97308.22;;;-22.69;100.00
73103;BME280;61294;65.988;29.172;2023-12-28T11:15:49;97307.81;;;-22.98;100.00
73103;BME280;61294;65.988;29.172;2023-12-28T11:18:16;97303.22;;;-23.02;100.00
73103;BME280;61294;65.988;29.172;2023-12-28T11:20:44;97317.88;;;-22.72;100.00
73103;BME280;61294;65.988;29.172;2023-12-28T11:23:10;97318.78;;;-22.63;100.00
73103;BME280;61294;65.988;29.172;2023-12-28T11:25:37;97299.88;;;-22.61;100.00
73103;BME280;61294;65.988;29.172;2023-12-28T11:28:10;97299.44;;;-22.65;100.00
73103;BME280;61294;65.988;29.172;2023-12-28T11:30:37;97322.81;;;-22.47;100.00
73103;BME280;61294;65.988;29.172;2023-12-28T11:33:04;97309.91;;;-22.43;100.00
73103;BME280;61294;65.988;29.172;2023-12-28T11:35:36;97318.84;;;-22.54;100.00
73103;BME280;61294;65.988;29.172;2023-12-28T11:38:03;97309.31;;;-22.49;100.00
73103;BME280;61294;65.988;29.172;2023-12-28T11:40:45;97316.97;;;-22.39;100.00
73103;BME280;61294;65.988;29.172;2023-12-28T11:43:19;97304.06;;;-22.35;100.00
73103;BME280;61294;65.988;29.172;2023-12-28T11:45:55;97314.34;;;-22.23;100.00
73103;BME280;61294;65.988;29.172;2023-12-28T11:48:27;97305.16;;;-22.06;100.00
73103;BME280;61294;65.988;29.172;2023-12-28T11:50:58;97281.19;;;-22.04;100.00
73103;BME280;61294;65.988;29.172;2023-12-28T11:53:25;97322.91;;;-22.03;100.00
73103;BME280;61294;65.988;29.172;2023-12-28T11:55:51;97304.88;;;-21.83;100.00
73103;BME280;61294;65.988;29.172;2023-12-28T11:58:18;97282.97;;;-21.86;100.00
73103;BME280;61294;65.988;29.172;2023-12-28T12:00:44;97312.81;;;-21.79;100.00
73103;BME280;61294;65.988;29.172;2023-12-28T12:03:12;97297.66;;;-21.71;100.00
73103;BME280;61294;65.988;29.172;2023-12-28T12:05:38;97257.09;;;-21.86;100.00
73103;BME280;61294;65.988;29.172;2023-12-28T12:08:06;97282.09;;;-21.51;100.00
73103;BME280;61294;65.988;29.172;2023-12-28T12:10:34;97290.16;;;-21.45;100.00
73103;BME280;61294;65.988;29.172;2023-12-28T12:13:00;97298.97;;;-21.31;100.00
73103;BME280;61294;65.988;29.172;2023-12-28T12:15:29;97309.44;;;-21.44;100.00
73103;BME280;61294;65.988;29.172;2023-12-28T12:17:55;97307.50;;;-21.38;100.00
73103;BME280;61294;65.988;29.172;2023-12-28T12:20:21;97271.78;;;-21.54;100.00
73103;BME280;61294;65.988;29.172;2023-12-28T12:22:48;97294.84;;;-21.40;100.00
73103;BME280;61294;65.988;29.172;2023-12-28T12:25:14;97318.66;;;-21.17;100.00
73103;BME280;61294;65.988;29.172;2023-12-28T12:27:41;97310.56;;;-21.14;100.00
73103;BME280;61294;65.988;29.172;2023-12-28T12:30:07;97315.41;;;-21.16;100.00
73103;BME280;61294;65.988;29.172;2023-12-28T12:32:35;97308.19;;;-21.22;100.00
73103;BME280;61294;65.988;29.172;2023-12-28T12:35:05;97309.38;;;-21.18;100.00